Time;durP1;ratioP1;P1;durP2;ratioP2;P2;SDS_P1;SDS_P2;PMS_P1;PMS_P2;Temp;Humidity;BMP_temperature;BMP_pressure;BME280_temperature;BME280_humidity;BME280_pressure;Samples;Min_cycle;Max_cycle;Signal;HPM_P1;HPM_P2
2023/10/02 00:00:42;;;;;;;3.90;3.70;;;21.70;76.40;;;;;;5073081;28;43419;-69
2023/10/02 00:03:10;;;;;;;4.00;3.80;;;21.70;76.50;;;;;;5065510;28;43603;-69
2023/10/02 00:05:50;;;;;;;4.23;4.03;;;21.70;76.50;;;;;;5069612;28;43459;-69
2023/10/02 00:08:42;;;;;;;3.97;3.87;;;21.70;76.50;;;;;;5068571;28;43462;-69
2023/10/02 00:16:42;;;;;;;4.00;3.80;;;21.60;76.60;;;;;;5069473;28;43426;-70
2023/10/02 00:19:22;;;;;;;4.27;4.07;;;21.60;76.60;;;;;;5069249;28;43845;-68
2023/10/02 00:21:51;;;;;;;4.10;3.90;;;21.60;76.70;;;;;;5064902;28;43430;-69
2023/10/02 00:24:19;;;;;;;3.67;3.57;;;21.60;76.80;;;;;;5069991;28;43709;-68
2023/10/02 00:26:47;;;;;;;4.40;4.20;;;21.50;76.90;;;;;;5069213;28;43467;-70
2023/10/02 00:29:17;;;;;;;4.10;3.90;;;21.50;77.00;;;;;;5068266;28;43476;-69
2023/10/02 00:31:46;;;;;;;4.17;3.97;;;21.50;77.00;;;;;;5061512;28;43442;-73
2023/10/02 00:34:14;;;;;;;4.17;3.97;;;21.50;77.10;;;;;;5046041;28;45375;-72
2023/10/02 00:36:42;;;;;;;4.27;4.07;;;21.50;77.20;;;;;;5046305;28;44674;-72
2023/10/02 00:39:30;;;;;;;4.17;3.97;;;21.50;77.20;;;;;;5046229;28;43365;-72
2023/10/02 00:42:16;;;;;;;4.50;4.30;;;21.50;77.20;;;;;;5044801;28;43555;-72
2023/10/02 00:44:54;;;;;;;4.10;3.90;;;21.40;77.20;;;;;;5046015;28;46707;-72
2023/10/02 00:47:38;;;;;;;4.47;4.27;;;21.40;77.70;;;;;;5045682;28;45140;-72
2023/10/02 00:50:07;;;;;;;4.53;4.23;;;21.50;77.40;;;;;;5046256;28;43438;-71
2023/10/02 00:52:37;;;;;;;4.40;4.20;;;21.70;76.80;;;;;;5063488;28;43494;-72
2023/10/02 00:55:08;;;;;;;4.50;4.30;;;21.90;76.30;;;;;;5045840;28;45255;-70
2023/10/02 00:57:36;;;;;;;5.23;4.90;;;22.10;75.50;;;;;;5061004;28;43666;-71
2023/10/02 01:00:07;;;;;;;4.50;4.30;;;22.30;74.70;;;;;;5063313;28;43474;-71
2023/10/02 01:02:35;;;;;;;4.30;4.10;;;22.60;73.90;;;;;;5047849;28;43463;-72
2023/10/02 01:05:04;;;;;;;3.63;3.53;;;22.80;73.20;;;;;;5062840;28;44955;-72
2023/10/02 01:07:34;;;;;;;4.47;4.20;;;22.90;72.50;;;;;;5063855;28;44112;-71
2023/10/02 01:10:09;;;;;;;3.93;3.83;;;23.10;72.00;;;;;;5050019;28;43942;-71
2023/10/02 01:12:44;;;;;;;3.97;3.77;;;23.20;71.50;;;;;;5050421;28;43482;-71
2023/10/02 01:15:12;;;;;;;4.23;4.03;;;23.30;71.40;;;;;;5045238;28;43600;-70
2023/10/02 01:17:41;;;;;;;4.37;4.17;;;23.30;71.10;;;;;;5050379;28;45053;-71
2023/10/02 01:20:20;;;;;;;4.00;3.80;;;23.30;70.80;;;;;;5049628;28;43339;-72
2023/10/02 01:22:51;;;;;;;4.70;4.43;;;23.30;71.10;;;;;;5046525;28;43635;-73
2023/10/02 01:25:23;;;;;;;4.57;4.37;;;23.10;71.40;;;;;;5066175;28;45980;-72
2023/10/02 01:27:55;;;;;;;4.13;3.93;;;22.90;71.90;;;;;;5050828;28;43913;-71
2023/10/02 01:30:24;;;;;;;4.00;3.70;;;22.70;72.60;;;;;;5049474;28;43363;-71
2023/10/02 01:33:06;;;;;;;4.57;4.37;;;22.60;73.20;;;;;;5066561;28;43506;-72
2023/10/02 01:35:36;;;;;;;4.13;3.93;;;22.50;73.50;;;;;;5049218;28;45359;-71
2023/10/02 01:38:12;;;;;;;4.40;4.20;;;22.40;73.80;;;;;;5048750;28;44802;-71
2023/10/02 01:40:45;;;;;;;4.70;4.40;;;22.20;74.10;;;;;;5045226;28;43746;-70
2023/10/02 01:43:14;;;;;;;4.00;3.80;;;22.20;74.80;;;;;;5047262;28;43529;-69
2023/10/02 01:45:43;;;;;;;4.10;3.80;;;22.20;74.60;;;;;;5048438;28;45388;-69
2023/10/02 01:48:13;;;;;;;4.40;4.20;;;22.30;74.10;;;;;;5043780;28;43412;-69
2023/10/02 01:50:43;;;;;;;4.30;4.10;;;22.40;73.70;;;;;;5048673;28;43532;-71
2023/10/02 01:56:11;;;;;;;4.07;3.97;;;22.40;73.80;;;;;;5104691;27;43616;-70
2023/10/02 01:58:40;;;;;;;4.50;4.30;;;22.20;74.10;;;;;;5103213;27;44775;-70
2023/10/02 02:01:09;;;;;;;4.40;4.20;;;22.10;74.60;;;;;;5103978;27;43391;-70
2023/10/02 02:03:38;;;;;;;4.43;4.23;;;22.10;75.00;;;;;;5094183;27;44016;-70
2023/10/02 02:06:16;;;;;;;4.80;4.50;;;22.10;75.10;;;;;;5097632;27;43943;-70
2023/10/02 02:08:47;;;;;;;4.47;4.27;;;22.00;75.20;;;;;;5085706;27;44375;-70
2023/10/02 02:11:21;;;;;;;4.10;3.90;;;21.90;75.40;;;;;;5088479;27;43358;-70
2023/10/02 02:13:49;;;;;;;4.60;4.40;;;21.90;75.80;;;;;;5089923;27;43984;-70
2023/10/02 02:16:21;;;;;;;4.57;4.37;;;21.90;75.60;;;;;;5085929;27;43947;-71
2023/10/02 02:18:53;;;;;;;4.37;4.17;;;22.00;75.10;;;;;;5094849;27;44704;-76
2023/10/02 02:21:24;;;;;;;4.30;4.10;;;22.20;74.70;;;;;;5092004;27;43434;-74
2023/10/02 02:24:03;;;;;;;4.37;4.10;;;22.20;74.50;;;;;;5091723;27;43350;-70
2023/10/02 02:26:33;;;;;;;4.50;4.27;;;22.20;74.50;;;;;;5087999;27;46009;-76
2023/10/02 02:29:01;;;;;;;4.30;4.10;;;22.10;74.60;;;;;;5091951;27;44754;-70
2023/10/02 02:31:30;;;;;;;4.10;4.00;;;22.00;75.00;;;;;;5091419;27;43427;-70
2023/10/02 02:33:59;;;;;;;3.97;3.77;;;22.00;75.40;;;;;;5089553;27;43527;-70
2023/10/02 02:36:28;;;;;;;4.67;4.43;;;22.00;75.50;;;;;;5084668;27;45388;-70
2023/10/02 02:41:39;;;;;;;4.30;4.10;;;21.80;75.70;;;;;;5092900;27;43474;-70
2023/10/02 02:44:29;;;;;;;4.07;3.87;;;21.80;76.10;;;;;;5089395;27;43857;-70
2023/10/02 02:46:59;;;;;;;4.90;4.60;;;21.80;76.00;;;;;;5087860;27;45711;-70
2023/10/02 02:49:29;;;;;;;4.27;4.07;;;21.90;75.60;;;;;;5087903;27;44410;-70
2023/10/02 02:51:58;;;;;;;4.40;4.20;;;22.10;75.20;;;;;;5095925;27;43344;-69
2023/10/02 02:54:28;;;;;;;4.93;4.30;;;22.10;74.90;;;;;;5114450;27;43514;-70
2023/10/02 02:56:58;;;;;;;4.30;4.10;;;22.00;74.80;;;;;;5107691;27;45799;-69
2023/10/02 02:59:29;;;;;;;4.50;4.30;;;22.00;75.10;;;;;;5108338;27;45088;-70
2023/10/02 03:02:08;;;;;;;4.17;3.97;;;21.90;75.40;;;;;;5115468;27;43501;-69
2023/10/02 03:04:39;;;;;;;4.33;4.13;;;21.80;75.70;;;;;;5111270;27;43594;-70
2023/10/02 03:07:29;;;;;;;4.33;4.13;;;21.80;75.80;;;;;;5100284;27;43974;-70
2023/10/02 03:10:00;;;;;;;4.53;4.33;;;21.80;75.90;;;;;;5101252;28;43395;-70
2023/10/02 03:12:30;;;;;;;4.90;4.70;;;21.70;76.00;;;;;;5103014;27;43384;-70
2023/10/02 03:14:57;;;;;;;4.60;4.40;;;21.70;76.30;;;;;;5097851;28;43460;-70
2023/10/02 03:17:31;;;;;;;4.00;3.80;;;21.70;76.10;;;;;;5099557;27;43609;-70
2023/10/02 03:20:00;;;;;;;4.33;4.13;;;21.70;76.20;;;;;;5097496;28;43379;-70
2023/10/02 03:22:33;;;;;;;4.17;3.97;;;21.70;76.30;;;;;;5094383;28;43543;-70
2023/10/02 03:27:48;;;;;;;4.03;3.93;;;21.60;76.60;;;;;;5095786;28;43692;-70
2023/10/02 03:30:35;;;;;;;4.43;4.23;;;21.60;76.30;;;;;;5096795;28;43492;-70
2023/10/02 03:33:17;;;;;;;4.43;4.20;;;21.80;76.00;;;;;;5098185;28;43371;-71
2023/10/02 03:35:56;;;;;;;3.93;3.80;;;22.00;75.40;;;;;;5104291;28;43444;-71
2023/10/02 03:38:29;;;;;;;3.90;3.70;;;22.10;75.00;;;;;;5098604;28;43684;-70
2023/10/02 03:40:57;;;;;;;4.17;3.97;;;22.10;74.70;;;;;;5103364;27;43442;-70
2023/10/02 03:43:43;;;;;;;4.43;4.23;;;22.00;74.80;;;;;;5102409;28;43414;-71
2023/10/02 03:46:15;;;;;;;4.40;4.20;;;22.00;75.10;;;;;;5099402;28;43506;-70
2023/10/02 03:48:51;;;;;;;5.07;4.73;;;21.90;75.50;;;;;;5102208;28;43599;-70
2023/10/02 03:51:36;;;;;;;4.50;4.30;;;21.90;75.60;;;;;;5094036;28;43971;-70
2023/10/02 03:54:18;;;;;;;4.03;3.83;;;21.80;75.60;;;;;;5094433;28;43405;-70
2023/10/02 03:56:47;;;;;;;4.27;4.07;;;21.70;75.80;;;;;;5096268;28;43423;-69
2023/10/02 03:59:20;;;;;;;4.43;4.23;;;21.70;76.10;;;;;;5100879;28;43602;-70
2023/10/02 04:01:50;;;;;;;3.97;3.83;;;21.70;76.20;;;;;;5083864;28;44959;-72
2023/10/02 04:04:21;;;;;;;4.30;4.10;;;21.70;76.20;;;;;;5072562;27;43849;-72
2023/10/02 04:06:53;;;;;;;4.00;3.80;;;21.70;76.30;;;;;;5077989;28;43386;-72
2023/10/02 04:09:23;;;;;;;4.23;4.03;;;21.60;76.30;;;;;;5075834;28;43955;-72
2023/10/02 04:11:52;;;;;;;4.30;4.10;;;21.60;76.60;;;;;;5077082;28;44777;-71
2023/10/02 04:14:31;;;;;;;4.13;3.93;;;21.60;76.50;;;;;;5074658;27;43469;-72
2023/10/02 04:17:13;;;;;;;3.90;3.80;;;21.60;76.50;;;;;;5081033;28;43900;-72
2023/10/02 04:19:43;;;;;;;4.20;4.00;;;21.60;76.50;;;;;;5077453;28;44053;-72
2023/10/02 04:22:19;;;;;;;4.37;4.17;;;21.60;76.70;;;;;;5072268;28;44473;-72
2023/10/02 04:24:54;;;;;;;4.20;4.00;;;21.60;77.50;;;;;;5077410;28;43849;-72
2023/10/02 04:27:25;;;;;;;5.40;4.90;;;21.70;76.50;;;;;;5080131;28;43339;-72
2023/10/02 04:30:21;;;;;;;5.73;5.13;;;21.80;75.90;;;;;;5074586;27;43582;-72
2023/10/02 04:32:51;;;;;;;9.93;6.37;;;22.00;75.50;;;;;;5069670;28;43480;-72
2023/10/02 04:38:08;;;;;;;14.50;7.57;;;22.00;75.10;;;;;;5078061;28;44087;-73
2023/10/02 04:40:44;;;;;;;18.40;8.70;;;21.90;75.40;;;;;;5073189;27;43643;-71
2023/10/02 04:43:23;;;;;;;19.13;8.77;;;21.90;76.50;;;;;;5076299;28;43488;-72
2023/10/02 04:46:01;;;;;;;21.87;8.70;;;21.80;75.80;;;;;;5078106;28;43995;-71
2023/10/02 04:48:38;;;;;;;24.67;9.73;;;21.80;75.90;;;;;;5073099;28;43806;-72
2023/10/02 04:51:07;;;;;;;19.63;9.40;;;21.70;76.00;;;;;;5073373;28;43611;-72
2023/10/02 04:53:36;;;;;;;22.43;9.67;;;21.70;76.40;;;;;;5075866;27;43423;-72
2023/10/02 04:56:24;;;;;;;18.10;9.57;;;21.70;76.40;;;;;;5076034;27;44001;-72
2023/10/02 04:58:57;;;;;;;19.13;9.23;;;21.70;76.40;;;;;;5081456;28;43497;-72
2023/10/02 05:01:34;;;;;;;25.43;9.73;;;21.60;76.40;;;;;;5073945;28;43678;-72
2023/10/02 05:04:03;;;;;;;20.73;10.47;;;21.60;76.60;;;;;;5070758;28;43343;-71
2023/10/02 05:06:44;;;;;;;25.43;10.50;;;21.60;76.70;;;;;;5074139;28;44062;-72
2023/10/02 05:09:20;;;;;;;27.23;11.30;;;21.70;76.50;;;;;;5072219;28;43297;-70
2023/10/02 05:11:55;;;;;;;22.33;10.70;;;21.80;76.00;;;;;;5077116;28;43697;-69
2023/10/02 05:14:26;;;;;;;27.17;11.20;;;22.00;75.50;;;;;;5093321;27;43390;-69
2023/10/02 05:17:16;;;;;;;21.93;10.57;;;22.00;75.10;;;;;;5103758;28;43375;-69
2023/10/02 05:19:56;;;;;;;22.60;11.00;;;22.00;75.10;;;;;;5098481;28;43513;-69
2023/10/02 05:22:27;;;;;;;24.90;11.23;;;21.90;75.30;;;;;;5092187;28;43677;-69
2023/10/02 05:24:58;;;;;;;25.93;11.77;;;21.90;75.60;;;;;;5096870;28;43406;-68
2023/10/02 05:27:30;;;;;;;25.67;11.17;;;21.80;75.90;;;;;;5095317;28;43924;-71
2023/10/02 05:30:05;;;;;;;24.60;11.07;;;21.80;75.90;;;;;;5091958;28;43587;-70
2023/10/02 05:32:35;;;;;;;21.73;10.87;;;21.80;76.00;;;;;;5097265;28;43695;-69
2023/10/02 05:35:16;;;;;;;21.40;11.57;;;21.70;76.10;;;;;;5097182;28;43382;-69
2023/10/02 05:37:45;;;;;;;24.97;11.87;;;21.60;76.30;;;;;;5093890;28;43939;-70
2023/10/02 05:43:17;;;;;;;21.00;10.73;;;21.60;76.40;;;;;;5091911;28;43632;-70
2023/10/02 05:45:50;;;;;;;23.87;11.53;;;21.60;76.40;;;;;;5098292;28;43332;-68
2023/10/02 05:48:31;;;;;;;24.83;12.70;;;21.50;76.60;;;;;;5094136;28;43351;-68
2023/10/02 05:50:59;;;;;;;22.97;11.67;;;21.60;76.90;;;;;;5093197;28;43562;-70
2023/10/02 05:53:31;;;;;;;24.70;12.27;;;21.60;76.50;;;;;;5096407;28;43886;-69
2023/10/02 05:56:05;;;;;;;22.87;11.30;;;21.80;76.20;;;;;;5092451;28;43319;-70
2023/10/02 05:58:35;;;;;;;24.40;12.03;;;21.90;75.60;;;;;;5096291;28;43438;-69
2023/10/02 06:01:05;;;;;;;23.60;12.30;;;22.00;75.10;;;;;;5094721;27;43424;-71
2023/10/02 06:03:35;;;;;;;23.27;11.60;;;22.00;75.10;;;;;;5093450;28;43866;-70
2023/10/02 06:06:21;;;;;;;22.17;11.73;;;22.00;75.30;;;;;;5094439;27;43533;-70
2023/10/02 06:08:49;;;;;;;20.03;11.33;;;21.90;75.50;;;;;;5090603;28;43360;-69
2023/10/02 06:11:27;;;;;;;24.10;12.17;;;21.80;75.90;;;;;;5093802;28;43469;-69
2023/10/02 06:14:09;;;;;;;21.30;11.10;;;21.70;75.90;;;;;;5094148;28;43864;-69
2023/10/02 06:16:39;;;;;;;21.57;11.27;;;21.70;75.90;;;;;;5090455;28;43428;-69
2023/10/02 06:19:13;;;;;;;21.87;11.67;;;21.70;76.10;;;;;;5093156;28;43386;-69
2023/10/02 06:21:46;;;;;;;19.90;11.23;;;21.60;76.40;;;;;;5092251;28;43402;-66
2023/10/02 06:24:18;;;;;;;20.73;11.43;;;21.60;76.50;;;;;;5076572;27;43848;-65
2023/10/02 06:26:57;;;;;;;21.17;11.53;;;21.60;76.40;;;;;;5080518;28;43366;-66
2023/10/02 06:29:28;;;;;;;20.57;11.47;;;21.60;76.40;;;;;;5076740;28;43468;-65
2023/10/02 06:31:59;;;;;;;20.10;11.50;;;21.50;76.50;;;;;;5077619;28;43455;-65
2023/10/02 06:34:37;;;;;;;21.73;11.53;;;21.50;76.90;;;;;;5079238;28;43867;-67
2023/10/02 06:37:12;;;;;;;20.77;11.63;;;21.50;76.70;;;;;;5083160;28;44626;-66
2023/10/02 06:39:41;;;;;;;16.43;10.37;;;21.50;76.60;;;;;;5078071;27;43667;-66
2023/10/02 06:42:09;;;;;;;18.80;10.97;;;21.50;76.60;;;;;;5081108;28;43375;-68
2023/10/02 06:44:41;;;;;;;20.07;11.27;;;21.50;76.70;;;;;;5082726;27;43574;-65
2023/10/02 06:47:13;;;;;;;20.07;11.30;;;21.50;77.10;;;;;;5082288;28;43390;-65
2023/10/02 06:49:44;;;;;;;22.37;11.47;;;21.50;76.80;;;;;;5080419;28;43395;-66
2023/10/02 06:52:15;;;;;;;21.20;11.33;;;21.70;76.40;;;;;;5082010;28;43578;-66
2023/10/02 06:54:44;;;;;;;19.40;10.93;;;21.80;75.90;;;;;;5080948;28;43818;-66
2023/10/02 06:57:16;;;;;;;18.80;11.30;;;21.90;75.40;;;;;;5089307;27;43398;-66
2023/10/02 06:59:52;;;;;;;18.50;11.07;;;21.90;75.20;;;;;;5085051;28;44100;-65
2023/10/02 07:02:24;;;;;;;17.23;10.23;;;21.90;75.30;;;;;;5083034;28;43461;-66
2023/10/02 07:04:55;;;;;;;16.97;11.10;;;21.80;75.60;;;;;;5082723;28;43603;-65
2023/10/02 07:07:29;;;;;;;18.03;10.63;;;21.70;75.90;;;;;;5084183;28;43355;-65
2023/10/02 07:10:07;;;;;;;17.30;10.23;;;21.70;76.00;;;;;;5084606;27;43427;-66
2023/10/02 07:12:39;;;;;;;17.37;10.77;;;21.70;76.10;;;;;;5078946;28;43417;-66
2023/10/02 07:15:12;;;;;;;16.53;10.00;;;21.60;76.10;;;;;;5075667;28;43894;-67
2023/10/02 07:18:00;;;;;;;19.97;10.83;;;21.60;76.50;;;;;;5084802;28;43918;-67
2023/10/02 07:20:53;;;;;;;17.10;10.03;;;21.50;76.50;;;;;;5077513;28;43380;-65
2023/10/02 07:23:29;;;;;;;15.90;10.50;;;21.70;76.30;;;;;;5083813;28;43411;-66
2023/10/02 07:26:04;;;;;;;16.07;10.90;;;21.80;75.90;;;;;;5080718;28;43836;-66
2023/10/02 07:28:32;;;;;;;18.30;10.70;;;21.80;75.80;;;;;;5078286;28;43379;-66
2023/10/02 07:31:00;;;;;;;16.17;9.93;;;21.70;75.80;;;;;;5087296;28;43353;-65
2023/10/02 07:33:28;;;;;;;15.10;9.83;;;21.70;76.00;;;;;;5094062;28;43838;-69
2023/10/02 07:35:58;;;;;;;17.20;10.23;;;21.70;75.90;;;;;;5094958;28;43587;-69
2023/10/02 07:38:30;;;;;;;14.30;9.00;;;21.70;75.90;;;;;;5099484;27;43420;-69
2023/10/02 07:41:06;;;;;;;14.57;9.93;;;21.70;76.10;;;;;;5093635;28;43730;-69
2023/10/02 07:43:34;;;;;;;14.90;9.43;;;21.60;77.00;;;;;;5098067;28;43395;-69
2023/10/02 07:46:14;;;;;;;14.97;9.87;;;21.60;76.50;;;;;;5101438;27;43586;-69
2023/10/02 07:48:55;;;;;;;14.70;9.57;;;21.60;76.50;;;;;;5099135;27;43411;-69
2023/10/02 07:51:35;;;;;;;14.27;9.50;;;21.60;76.50;;;;;;5096156;28;43557;-69
2023/10/02 07:54:03;;;;;;;14.27;9.40;;;21.50;76.60;;;;;;5094703;28;43577;-68
2023/10/02 07:56:32;;;;;;;13.90;8.97;;;21.50;76.90;;;;;;5098347;28;43608;-69
2023/10/02 07:59:01;;;;;;;13.70;9.37;;;21.50;76.70;;;;;;5098493;27;43408;-69
2023/10/02 08:01:33;;;;;;;13.13;8.73;;;21.70;76.40;;;;;;5094518;28;43384;-68
2023/10/02 08:04:01;;;;;;;13.47;9.20;;;21.80;76.00;;;;;;5096877;28;43400;-69
2023/10/02 08:06:36;;;;;;;12.40;9.03;;;21.90;75.60;;;;;;5096436;28;43860;-69
2023/10/02 08:11:55;;;;;;;11.70;8.43;;;21.90;75.50;;;;;;5092052;28;43410;-69
2023/10/02 08:14:38;;;;;;;14.37;9.47;;;21.80;75.70;;;;;;5100277;28;43438;-70
2023/10/02 08:17:18;;;;;;;13.63;9.13;;;21.70;76.10;;;;;;5095292;28;43623;-70
2023/10/02 08:19:54;;;;;;;11.70;9.07;;;21.70;76.20;;;;;;5095143;28;43336;-69
2023/10/02 08:22:24;;;;;;;12.60;8.70;;;21.60;76.20;;;;;;5098475;28;43356;-69
2023/10/02 08:24:52;;;;;;;11.03;8.23;;;21.60;76.30;;;;;;5095645;27;43417;-70
2023/10/02 08:27:23;;;;;;;11.50;8.37;;;21.50;76.60;;;;;;5098631;28;43620;-69
2023/10/02 08:29:52;;;;;;;12.73;8.87;;;21.50;76.90;;;;;;5094038;28;44805;-69
2023/10/02 08:32:30;;;;;;;12.27;8.30;;;21.50;76.80;;;;;;5093743;28;43443;-70
2023/10/02 08:34:58;;;;;;;10.53;7.90;;;21.50;76.80;;;;;;5098082;27;43398;-69
2023/10/02 08:37:34;;;;;;;10.83;8.10;;;21.50;76.90;;;;;;5091921;28;43816;-69
2023/10/02 08:40:07;;;;;;;12.43;8.67;;;21.50;77.30;;;;;;5094934;28;43356;-69
2023/10/02 08:42:35;;;;;;;11.57;8.10;;;21.50;77.10;;;;;;5086169;28;43473;-66
2023/10/02 08:45:03;;;;;;;10.23;8.03;;;21.60;77.50;;;;;;5081297;27;43387;-67
2023/10/02 08:47:32;;;;;;;9.60;8.13;;;21.70;76.40;;;;;;5076953;27;43619;-65
2023/10/02 08:50:04;;;;;;;11.10;8.30;;;21.80;75.90;;;;;;5078004;28;43801;-65
2023/10/02 08:52:41;;;;;;;9.90;7.83;;;21.80;75.70;;;;;;5080586;28;43506;-66
2023/10/02 08:55:33;;;;;;;11.40;7.60;;;21.80;75.70;;;;;;5075223;28;43639;-66
2023/10/02 08:58:15;;;;;;;10.17;8.00;;;21.80;76.00;;;;;;5082198;27;43842;-65
2023/10/02 09:03:42;;;;;;;9.80;7.10;;;21.70;76.50;;;;;;5078025;27;43437;-66
2023/10/02 09:06:28;;;;;;;9.23;7.60;;;21.60;76.40;;;;;;5079528;28;43451;-66
2023/10/02 09:09:23;;;;;;;8.83;7.33;;;21.60;77.30;;;;;;5084074;28;43646;-66
2023/10/02 09:11:53;;;;;;;11.33;8.10;;;21.50;76.80;;;;;;5075615;28;43529;-65
2023/10/02 09:14:22;;;;;;;11.37;7.87;;;21.50;77.00;;;;;;5085853;28;43979;-68
2023/10/02 09:17:07;;;;;;;9.97;7.60;;;21.50;77.00;;;;;;5078998;28;43516;-67
2023/10/02 09:19:39;;;;;;;8.03;7.10;;;21.50;77.00;;;;;;5074872;28;43613;-65
2023/10/02 09:22:13;;;;;;;9.03;7.33;;;21.50;77.20;;;;;;5077924;28;45250;-66
2023/10/02 09:24:55;;;;;;;9.27;7.43;;;21.40;77.40;;;;;;5076848;28;43472;-65
2023/10/02 09:27:30;;;;;;;8.87;7.53;;;21.50;77.10;;;;;;5081885;28;43422;-65
2023/10/02 09:30:49;;;;;;;8.43;7.47;;;21.60;76.70;;;;;;5079375;28;43685;-66
2023/10/02 09:33:22;;;;;;;10.43;7.77;;;21.80;76.20;;;;;;5084491;28;44003;-65
2023/10/02 09:36:11;;;;;;;9.27;7.23;;;21.80;76.70;;;;;;5078708;28;43375;-65
2023/10/02 09:39:31;;;;;;;7.90;7.10;;;21.80;76.20;;;;;;5079769;28;43407;-66
2023/10/02 09:41:49;;;;;;;9.03;7.30;;;21.70;76.50;;;;;;5084090;28;43607;-65
2023/10/02 09:44:21;;;;;;;8.10;7.07;;;21.70;76.70;;;;;;5083054;28;44710;-65
2023/10/02 09:46:52;;;;;;;8.23;6.97;;;21.60;76.70;;;;;;5074296;28;43397;-66
2023/10/02 09:49:24;;;;;;;7.63;6.30;;;21.60;76.90;;;;;;5080699;28;43434;-65
2023/10/02 09:52:09;;;;;;;7.43;6.73;;;21.60;77.10;;;;;;5080273;27;43621;-71
2023/10/02 09:54:40;;;;;;;7.87;6.83;;;21.60;77.20;;;;;;5076061;28;43460;-71
2023/10/02 09:57:14;;;;;;;7.63;6.93;;;21.50;77.20;;;;;;5072276;28;44032;-70
2023/10/02 09:59:46;;;;;;;7.63;6.83;;;21.60;77.30;;;;;;5073325;27;43517;-71
2023/10/02 10:05:45;;;;;;;7.40;6.50;;;21.50;77.30;;;;;;5074409;28;43474;-71
2023/10/02 10:08:28;;;;;;;8.60;7.43;;;21.50;77.50;;;;;;5076889;28;43524;-72
2023/10/02 10:11:10;;;;;;;7.93;6.73;;;21.50;77.20;;;;;;5075707;28;43952;-73
2023/10/02 10:13:46;;;;;;;7.37;6.53;;;21.60;76.70;;;;;;5074512;27;43607;-72
2023/10/02 10:16:35;;;;;;;7.97;6.83;;;21.80;76.20;;;;;;5077663;27;43417;-72
2023/10/02 10:19:31;;;;;;;6.97;6.27;;;21.90;75.90;;;;;;5080039;28;43442;-72
2023/10/02 10:22:00;;;;;;;6.93;6.37;;;21.90;76.10;;;;;;5075651;28;43395;-71
2023/10/02 10:24:56;;;;;;;6.97;6.37;;;21.80;76.40;;;;;;5077842;28;43658;-72
2023/10/02 10:27:54;;;;;;;8.07;6.43;;;21.70;76.60;;;;;;5080092;28;43962;-72
2023/10/02 10:30:44;;;;;;;7.00;6.30;;;21.70;76.70;;;;;;5077506;28;43506;-72
2023/10/02 10:33:33;;;;;;;6.20;5.60;;;21.70;76.90;;;;;;5074466;28;43478;-72
2023/10/02 10:36:08;;;;;;;7.23;6.53;;;21.60;77.00;;;;;;5083243;28;43624;-70
2023/10/02 10:38:41;;;;;;;6.90;6.20;;;21.60;77.20;;;;;;5078898;28;45012;-70
2023/10/02 10:41:14;;;;;;;7.27;6.57;;;21.60;77.10;;;;;;5081458;28;43360;-71
2023/10/02 10:43:55;;;;;;;6.80;6.20;;;21.60;76.80;;;;;;5079131;27;43585;-72
2023/10/02 10:46:27;;;;;;;7.23;6.57;;;21.70;76.40;;;;;;5075435;27;43886;-72
2023/10/02 10:48:59;;;;;;;6.63;5.90;;;21.80;76.50;;;;;;5077019;28;43921;-72
2023/10/02 10:51:33;;;;;;;6.30;5.73;;;21.80;76.70;;;;;;5080995;27;43406;-73
2023/10/02 10:54:19;;;;;;;6.43;5.83;;;21.70;76.60;;;;;;5078554;28;43550;-71
2023/10/02 10:57:22;;;;;;;6.97;6.37;;;21.70;76.40;;;;;;5072482;28;43708;-72
2023/10/02 11:00:23;;;;;;;6.70;6.10;;;21.70;76.80;;;;;;5078888;28;44281;-70
2023/10/02 11:03:00;;;;;;;6.60;6.10;;;21.70;77.00;;;;;;5087923;28;43368;-70
2023/10/02 11:05:33;;;;;;;6.73;6.03;;;21.60;76.90;;;;;;5096262;27;43545;-70
2023/10/02 11:08:24;;;;;;;7.10;6.23;;;21.60;76.90;;;;;;5095700;28;45643;-70
2023/10/02 11:11:06;;;;;;;6.40;5.80;;;21.60;77.10;;;;;;5098192;28;43410;-70
2023/10/02 11:13:50;;;;;;;6.17;5.67;;;21.60;77.20;;;;;;5098933;27;43320;-70
2023/10/02 11:16:34;;;;;;;6.57;5.97;;;21.60;77.30;;;;;;5101598;28;43346;-70
2023/10/02 11:19:10;;;;;;;6.47;5.87;;;21.60;76.90;;;;;;5092256;28;45939;-69
2023/10/02 11:21:46;;;;;;;6.10;5.60;;;21.70;76.60;;;;;;5096591;27;43346;-70
2023/10/02 11:24:21;;;;;;;6.30;5.80;;;21.80;76.20;;;;;;5103928;28;43940;-69
2023/10/02 11:26:53;;;;;;;6.47;5.90;;;21.90;75.80;;;;;;5097351;27;43430;-70
2023/10/02 11:29:22;;;;;;;6.37;5.77;;;21.90;75.80;;;;;;5104862;28;43602;-70
2023/10/02 11:32:19;;;;;;;5.53;5.13;;;21.90;76.20;;;;;;5102510;28;45088;-69
2023/10/02 11:34:49;;;;;;;6.73;6.07;;;21.80;76.30;;;;;;5098969;28;43386;-69
2023/10/02 11:37:17;;;;;;;5.97;5.47;;;21.80;76.50;;;;;;5099385;28;43538;-69
2023/10/02 11:39:50;;;;;;;6.30;5.80;;;21.70;76.30;;;;;;5096379;28;43622;-69
2023/10/02 11:42:19;;;;;;;5.80;5.40;;;21.70;76.70;;;;;;5100659;28;43416;-69
2023/10/02 11:44:47;;;;;;;5.97;5.57;;;21.70;76.80;;;;;;5097093;28;43369;-69
2023/10/02 11:47:15;;;;;;;6.13;5.63;;;21.60;76.90;;;;;;5094687;28;43577;-69
2023/10/02 11:49:44;;;;;;;5.77;5.37;;;21.60;76.90;;;;;;5099361;28;45678;-70
2023/10/02 11:52:15;;;;;;;5.37;5.00;;;21.60;77.00;;;;;;5099086;28;44710;-69
2023/10/02 11:54:43;;;;;;;6.30;5.70;;;21.60;77.10;;;;;;5104782;28;43422;-69
2023/10/02 11:57:12;;;;;;;5.47;5.07;;;21.60;77.90;;;;;;5094133;27;43798;-69
2023/10/02 11:59:47;;;;;;;5.97;5.50;;;21.50;77.20;;;;;;5096886;28;43591;-69
2023/10/02 12:02:16;;;;;;;5.80;5.40;;;21.50;76.90;;;;;;5093628;28;43437;-69
2023/10/02 12:04:45;;;;;;;6.10;5.60;;;21.60;76.60;;;;;;5093241;28;43424;-69
2023/10/02 12:07:15;;;;;;;6.17;5.67;;;21.70;76.20;;;;;;5097158;28;43971;-70
2023/10/02 12:09:47;;;;;;;5.80;5.30;;;21.90;75.90;;;;;;5094478;28;43532;-68
2023/10/02 12:12:16;;;;;;;5.77;5.47;;;21.90;75.60;;;;;;5099972;28;43429;-69
2023/10/02 12:14:44;;;;;;;5.87;5.40;;;21.90;76.00;;;;;;5097504;28;43351;-69
2023/10/02 12:17:14;;;;;;;5.47;5.07;;;21.90;77.00;;;;;;5101410;28;43435;-68
2023/10/02 12:19:44;;;;;;;5.77;5.37;;;21.80;76.40;;;;;;5103243;28;43799;-69
2023/10/02 12:22:14;;;;;;;6.13;5.63;;;21.70;76.20;;;;;;5096129;28;44971;-68
2023/10/02 12:24:42;;;;;;;5.43;5.07;;;21.70;76.60;;;;;;5102001;28;43363;-68
2023/10/02 12:27:12;;;;;;;5.63;5.17;;;21.70;76.80;;;;;;5101594;28;43320;-70
2023/10/02 12:29:41;;;;;;;5.37;5.07;;;21.60;76.90;;;;;;5098080;28;43725;-68
2023/10/02 12:32:09;;;;;;;6.33;5.73;;;21.60;76.80;;;;;;5098233;28;43422;-69
2023/10/02 12:34:39;;;;;;;4.90;4.60;;;21.60;76.80;;;;;;5093319;28;43411;-69
2023/10/02 12:37:09;;;;;;;5.47;5.07;;;21.60;77.00;;;;;;5094584;28;44106;-70
2023/10/02 12:39:39;;;;;;;5.37;4.97;;;21.60;77.90;;;;;;5095825;27;45657;-69
2023/10/02 12:42:07;;;;;;;5.80;5.40;;;21.60;77.20;;;;;;5095919;28;43477;-69
2023/10/02 12:44:40;;;;;;;6.07;5.57;;;21.60;77.10;;;;;;5094689;28;43397;-71
2023/10/02 12:47:09;;;;;;;5.83;5.33;;;21.60;76.80;;;;;;5099475;28;43443;-69
2023/10/02 12:49:38;;;;;;;5.80;5.30;;;21.60;76.40;;;;;;5098035;28;45715;-70
2023/10/02 12:52:06;;;;;;;5.63;5.23;;;21.80;76.10;;;;;;5095089;28;44800;-70
2023/10/02 12:54:35;;;;;;;5.37;4.97;;;21.90;75.60;;;;;;5093774;28;43454;-70
2023/10/02 12:57:05;;;;;;;5.80;5.30;;;21.90;75.80;;;;;;5092338;28;43891;-70
2023/10/02 12:59:37;;;;;;;5.03;4.77;;;21.90;76.10;;;;;;5098157;28;44137;-70
2023/10/02 13:02:07;;;;;;;5.17;4.80;;;21.80;76.30;;;;;;5095143;28;43408;-69
2023/10/02 13:04:36;;;;;;;5.50;5.10;;;21.80;76.60;;;;;;5097248;28;43353;-70
2023/10/02 13:07:05;;;;;;;5.27;4.97;;;21.70;76.30;;;;;;5100172;27;44097;-70
2023/10/02 13:09:33;;;;;;;5.00;4.70;;;21.70;76.60;;;;;;5095671;27;43607;-70
2023/10/02 13:12:01;;;;;;;4.87;4.57;;;21.70;76.80;;;;;;5098918;28;43405;-69
2023/10/02 13:14:31;;;;;;;5.23;4.93;;;21.60;76.90;;;;;;5093925;28;43395;-70
2023/10/02 13:17:00;;;;;;;5.67;5.27;;;21.60;76.90;;;;;;5097806;28;43547;-70
2023/10/02 13:19:29;;;;;;;5.00;4.70;;;21.60;76.90;;;;;;5095790;27;43593;-70
2023/10/02 13:21:58;;;;;;;5.20;4.90;;;21.60;77.10;;;;;;5093014;28;43366;-72
2023/10/02 13:24:28;;;;;;;5.33;5.00;;;21.60;77.20;;;;;;5071908;28;43377;-72
2023/10/02 13:26:56;;;;;;;5.90;5.50;;;21.60;77.20;;;;;;5069757;28;43391;-71
2023/10/02 13:29:24;;;;;;;5.10;4.70;;;21.50;77.10;;;;;;5069385;28;43895;-71
2023/10/02 13:31:54;;;;;;;5.43;5.03;;;21.60;76.70;;;;;;5078306;28;43425;-71
2023/10/02 13:34:22;;;;;;;5.93;5.50;;;21.70;76.30;;;;;;5071060;28;43436;-72
2023/10/02 13:36:57;;;;;;;5.70;5.30;;;21.80;76.70;;;;;;5073507;28;43343;-71
2023/10/02 13:39:38;;;;;;;5.07;4.77;;;21.90;75.60;;;;;;5071000;28;45608;-72
2023/10/02 13:42:15;;;;;;;4.80;4.50;;;21.90;75.90;;;;;;5083352;27;44176;-72
2023/10/02 13:44:43;;;;;;;4.67;4.30;;;21.80;76.00;;;;;;5071922;28;43483;-72